Time;durP1;ratioP1;P1;durP2;ratioP2;P2;SDS_P1;SDS_P2;PMS_P1;PMS_P2;Temp;Humidity;BMP_temperature;BMP_pressure;BME280_temperature;BME280_humidity;BME280_pressure;Samples;Min_cycle;Max_cycle;Signal;HPM_P1;HPM_P2
2022/02/17 00:00:41;;;;;;;1.55;0.60;;;14.30;99.90;;;;;;2107362;28;20471;-73
2022/02/17 00:01:42;;;;;;;3.13;0.98;;;14.30;99.90;;;;;;2105574;28;20016;-73
2022/02/17 00:02:43;;;;;;;2.15;0.80;;;14.30;99.90;;;;;;2100021;28;20110;-73
2022/02/17 00:03:43;;;;;;;2.75;1.00;;;14.30;99.90;;;;;;2104291;28;20526;-73
2022/02/17 00:04:44;;;;;;;0.95;0.55;;;14.40;99.90;;;;;;2103212;28;20034;-73
2022/02/17 00:05:44;;;;;;;1.83;0.52;;;14.40;99.90;;;;;;2101671;28;20017;-73
2022/02/17 00:06:45;;;;;;;0.98;0.60;;;14.40;99.90;;;;;;2104594;28;20488;-73
2022/02/17 00:07:46;;;;;;;0.80;0.63;;;14.30;99.90;;;;;;2105033;28;20099;-73
2022/02/17 00:08:46;;;;;;;2.28;0.80;;;14.30;99.90;;;;;;2103795;28;20020;-73
2022/02/17 00:09:47;;;;;;;1.95;0.85;;;14.30;99.90;;;;;;2106714;28;20016;-73
2022/02/17 00:10:47;;;;;;;4.53;0.82;;;14.40;99.90;;;;;;2105578;28;20081;-73
2022/02/17 00:11:48;;;;;;;1.15;0.75;;;14.40;99.90;;;;;;2105019;28;20048;-73
2022/02/17 00:12:50;;;;;;;2.08;0.98;;;14.40;99.90;;;;;;2105359;28;20031;-73
2022/02/17 00:13:50;;;;;;;3.40;1.10;;;14.40;99.90;;;;;;2104957;28;20016;-73
2022/02/17 00:14:51;;;;;;;2.85;1.00;;;14.40;99.90;;;;;;2105421;28;20040;-73
2022/02/17 00:15:51;;;;;;;4.35;1.00;;;14.40;99.90;;;;;;2108080;28;20020;-73
2022/02/17 00:16:52;;;;;;;1.38;0.70;;;14.30;99.90;;;;;;2102560;28;20396;-73
2022/02/17 00:17:54;;;;;;;4.13;1.13;;;14.30;99.90;;;;;;2105105;28;20020;-73
2022/02/17 00:18:55;;;;;;;2.22;0.95;;;14.30;99.90;;;;;;2104744;28;20043;-73
2022/02/17 00:19:56;;;;;;;3.00;1.05;;;14.30;99.90;;;;;;2101666;28;20027;-73
2022/02/17 00:20:56;;;;;;;3.20;1.13;;;14.30;99.90;;;;;;2104766;28;20040;-73
2022/02/17 00:21:57;;;;;;;4.15;0.95;;;14.30;99.90;;;;;;2101752;28;20044;-73
2022/02/17 00:22:57;;;;;;;3.83;1.38;;;14.30;99.90;;;;;;2102542;28;20056;-73
2022/02/17 00:23:58;;;;;;;2.10;0.93;;;14.30;99.90;;;;;;2097374;28;20611;-73
2022/02/17 00:24:58;;;;;;;2.58;0.85;;;14.30;99.90;;;;;;2098978;28;20070;-73
2022/02/17 00:25:59;;;;;;;2.50;1.02;;;14.30;99.90;;;;;;2104662;28;20404;-73
2022/02/17 00:27:02;;;;;;;2.67;1.10;;;14.30;99.90;;;;;;2105396;28;20481;-73
2022/02/17 00:28:03;;;;;;;4.60;1.25;;;14.30;99.90;;;;;;2102965;28;20024;-73
2022/02/17 00:29:03;;;;;;;4.22;1.25;;;14.30;99.90;;;;;;2105429;28;20496;-73
2022/02/17 00:30:08;;;;;;;2.28;1.00;;;14.30;99.90;;;;;;2104569;28;20027;-73
2022/02/17 00:31:09;;;;;;;4.82;1.10;;;14.20;99.90;;;;;;2099507;28;20044;-73
2022/02/17 00:32:10;;;;;;;2.95;1.23;;;14.20;99.90;;;;;;2107820;28;20111;-73
2022/02/17 00:33:10;;;;;;;4.40;1.10;;;14.20;99.90;;;;;;2107421;28;20066;-73
2022/02/17 00:34:13;;;;;;;3.63;1.02;;;14.20;99.90;;;;;;2097776;28;20081;-73
2022/02/17 00:35:13;;;;;;;3.10;1.00;;;14.20;99.90;;;;;;2105227;28;20024;-73
2022/02/17 00:36:14;;;;;;;6.88;1.27;;;14.20;99.90;;;;;;2103652;28;20456;-73
2022/02/17 00:37:17;;;;;;;2.80;1.02;;;14.20;99.90;;;;;;2104834;28;20027;-73
2022/02/17 00:38:18;;;;;;;3.47;1.30;;;14.20;99.90;;;;;;2105557;28;20051;-73
2022/02/17 00:39:20;;;;;;;3.65;1.10;;;14.20;99.90;;;;;;2106880;28;20076;-73
2022/02/17 00:40:20;;;;;;;3.38;1.30;;;14.20;99.90;;;;;;2107593;28;20020;-73
2022/02/17 00:41:21;;;;;;;4.10;1.23;;;14.10;99.90;;;;;;2105558;28;20058;-73
2022/02/17 00:42:22;;;;;;;5.75;1.38;;;14.10;99.90;;;;;;2104942;28;20110;-73
2022/02/17 00:43:22;;;;;;;3.92;1.02;;;14.10;99.90;;;;;;2105286;28;20461;-73
2022/02/17 00:44:24;;;;;;;8.73;1.75;;;14.10;99.90;;;;;;2105208;28;20088;-73
2022/02/17 00:45:25;;;;;;;4.00;1.30;;;14.10;99.90;;;;;;2108468;28;20016;-73
2022/02/17 00:46:27;;;;;;;3.58;1.05;;;14.00;99.90;;;;;;2104611;28;20026;-73
2022/02/17 00:47:27;;;;;;;6.60;1.73;;;14.00;99.90;;;;;;2107066;28;20015;-73
2022/02/17 00:48:28;;;;;;;6.30;1.75;;;14.00;99.90;;;;;;2105774;28;20064;-73
2022/02/17 00:49:29;;;;;;;4.35;1.65;;;14.00;99.90;;;;;;2103178;28;20024;-73
2022/02/17 00:50:29;;;;;;;3.13;0.93;;;13.90;99.90;;;;;;2102048;28;20028;-73
2022/02/17 00:51:31;;;;;;;5.65;1.27;;;13.90;99.90;;;;;;2102268;28;20749;-73
2022/02/17 00:52:31;;;;;;;8.40;1.63;;;13.90;99.90;;;;;;2105074;28;20020;-73
2022/02/17 00:53:32;;;;;;;4.43;1.38;;;13.80;99.90;;;;;;2106695;28;20527;-73
2022/02/17 00:54:33;;;;;;;5.32;1.20;;;13.80;99.90;;;;;;2107330;28;20020;-73
2022/02/17 00:55:33;;;;;;;5.63;1.48;;;13.80;99.90;;;;;;2107591;28;20027;-73
2022/02/17 00:56:35;;;;;;;3.47;1.27;;;13.70;99.90;;;;;;2105610;28;20043;-73
2022/02/17 00:57:35;;;;;;;2.40;0.90;;;13.70;99.90;;;;;;2104374;28;20050;-73
2022/02/17 00:58:36;;;;;;;2.03;1.02;;;13.60;99.90;;;;;;2105932;28;20020;-73
2022/02/17 00:59:36;;;;;;;2.17;1.00;;;13.60;99.90;;;;;;2103635;28;20062;-73
2022/02/17 01:00:37;;;;;;;2.22;1.38;;;13.50;99.90;;;;;;2102325;28;20016;-74
2022/02/17 01:01:38;;;;;;;1.55;1.10;;;13.50;99.90;;;;;;2102092;28;20380;-73
2022/02/17 01:02:38;;;;;;;3.85;1.40;;;13.50;99.90;;;;;;2103581;28;20031;-73
2022/02/17 01:03:39;;;;;;;2.17;1.30;;;13.50;99.90;;;;;;2102142;28;20463;-73
2022/02/17 01:04:40;;;;;;;1.90;1.20;;;13.50;99.90;;;;;;2100808;28;20059;-74
2022/02/17 01:05:40;;;;;;;2.17;1.30;;;13.50;99.90;;;;;;2105361;28;20110;-74
2022/02/17 01:06:41;;;;;;;4.10;1.50;;;13.50;99.90;;;;;;2103996;28;20024;-73
2022/02/17 01:07:42;;;;;;;3.15;1.33;;;13.50;99.90;;;;;;2103223;28;20028;-73
2022/02/17 01:08:43;;;;;;;4.60;1.70;;;13.50;99.90;;;;;;2103146;28;20051;-73
2022/02/17 01:09:43;;;;;;;4.00;1.25;;;13.50;99.90;;;;;;2104307;28;20020;-73
2022/02/17 01:10:44;;;;;;;4.15;1.20;;;13.50;99.90;;;;;;2107143;28;20020;-73
2022/02/17 01:11:44;;;;;;;2.42;1.42;;;13.50;99.90;;;;;;2106858;28;20081;-73
2022/02/17 01:12:45;;;;;;;3.58;1.13;;;13.50;99.90;;;;;;2112828;28;20020;-73
2022/02/17 01:13:45;;;;;;;2.45;1.20;;;13.50;99.90;;;;;;2104486;28;20048;-74
2022/02/17 01:14:46;;;;;;;3.80;1.25;;;13.40;99.90;;;;;;2104435;28;20031;-73
2022/02/17 01:15:46;;;;;;;3.50;0.90;;;13.50;99.90;;;;;;2104527;28;20051;-73
2022/02/17 01:16:47;;;;;;;3.20;0.88;;;13.40;99.90;;;;;;2102646;28;20035;-73
2022/02/17 01:17:48;;;;;;;3.53;1.00;;;13.50;99.90;;;;;;2105719;28;20012;-73
2022/02/17 01:18:48;;;;;;;5.95;1.08;;;13.50;99.90;;;;;;2107360;28;20020;-73
2022/02/17 01:19:49;;;;;;;3.05;0.95;;;13.50;99.90;;;;;;2103498;28;20086;-73
2022/02/17 01:20:50;;;;;;;1.45;0.80;;;13.40;99.90;;;;;;2104576;28;20020;-73
2022/02/17 01:21:50;;;;;;;2.67;0.85;;;13.40;99.90;;;;;;2104140;28;20028;-73
2022/02/17 01:22:51;;;;;;;3.50;1.00;;;13.40;99.90;;;;;;2102431;28;20050;-74
2022/02/17 01:23:52;;;;;;;3.20;0.90;;;13.50;99.90;;;;;;2105050;28;20026;-73
2022/02/17 01:24:52;;;;;;;3.17;0.88;;;13.40;99.90;;;;;;2104790;28;20031;-73
2022/02/17 01:25:53;;;;;;;2.83;1.00;;;13.40;99.90;;;;;;2106639;28;20050;-73
2022/02/17 01:26:54;;;;;;;3.60;1.02;;;13.50;99.90;;;;;;2108201;28;20031;-73
2022/02/17 01:27:55;;;;;;;3.92;1.13;;;13.40;99.90;;;;;;2103981;28;20020;-73
2022/02/17 01:28:56;;;;;;;5.45;1.27;;;13.50;99.90;;;;;;2101283;28;20132;-73
2022/02/17 01:29:56;;;;;;;2.17;0.73;;;13.40;99.90;;;;;;2104167;28;20028;-73
2022/02/17 01:30:57;;;;;;;2.50;0.73;;;13.50;99.90;;;;;;2098768;28;20037;-73
2022/02/17 01:31:57;;;;;;;3.38;1.00;;;13.40;99.90;;;;;;2104217;28;20035;-73
2022/02/17 01:32:58;;;;;;;2.17;0.90;;;13.40;99.90;;;;;;2101679;28;20024;-73
2022/02/17 01:33:59;;;;;;;2.35;1.05;;;13.40;99.90;;;;;;2106800;28;20346;-73
2022/02/17 01:34:59;;;;;;;3.03;0.95;;;13.40;99.90;;;;;;2107782;28;20024;-73
2022/02/17 01:36:06;;;;;;;5.32;1.00;;;13.40;99.90;;;;;;2106576;28;20488;-73
2022/02/17 01:37:07;;;;;;;7.07;1.10;;;13.40;99.90;;;;;;2103081;28;20422;-73
2022/02/17 01:38:07;;;;;;;4.03;1.23;;;13.30;99.90;;;;;;2102284;28;20027;-74
2022/02/17 01:39:08;;;;;;;4.82;1.50;;;13.30;99.90;;;;;;2105060;28;20542;-73
2022/02/17 01:40:10;;;;;;;6.55;1.30;;;13.30;99.90;;;;;;2104581;28;20020;-73
2022/02/17 01:41:11;;;;;;;4.85;1.60;;;13.30;99.90;;;;;;2105221;28;20456;-73
2022/02/17 01:42:11;;;;;;;3.28;1.20;;;13.30;99.90;;;;;;2106868;28;20570;-74
2022/02/17 01:43:16;;;;;;;1.95;1.00;;;13.30;99.90;;;;;;2106104;28;20585;-73
2022/02/17 01:44:16;;;;;;;2.25;1.00;;;13.20;99.90;;;;;;2101784;28;20016;-74
2022/02/17 01:45:17;;;;;;;6.40;1.08;;;13.20;99.90;;;;;;2105972;28;20015;-73
2022/02/17 01:46:32;;;;;;;2.00;0.93;;;13.10;99.90;;;;;;2105565;28;20032;-74
2022/02/17 01:47:33;;;;;;;2.15;0.88;;;13.00;99.90;;;;;;2109985;28;20016;-73
2022/02/17 01:48:33;;;;;;;2.80;1.00;;;13.00;99.90;;;;;;2103720;28;20028;-73
2022/02/17 01:49:34;;;;;;;2.78;1.00;;;13.00;99.90;;;;;;2102062;28;20056;-73
2022/02/17 01:50:40;;;;;;;2.28;0.82;;;13.00;99.90;;;;;;2104989;28;20432;-73
2022/02/17 01:51:41;;;;;;;4.03;1.25;;;12.90;99.90;;;;;;2105177;28;20032;-73
2022/02/17 01:52:41;;;;;;;3.35;1.45;;;12.90;99.90;;;;;;2105812;28;20103;-73
2022/02/17 01:53:42;;;;;;;6.25;1.30;;;12.90;99.90;;;;;;2105584;28;20032;-73
2022/02/17 01:54:44;;;;;;;3.08;1.55;;;12.90;99.90;;;;;;2104279;28;20087;-73
2022/02/17 01:55:48;;;;;;;3.53;1.38;;;12.90;99.90;;;;;;2104996;28;20012;-73
2022/02/17 01:56:48;;;;;;;5.18;1.60;;;12.90;99.90;;;;;;2104352;28;20016;-73
2022/02/17 01:57:49;;;;;;;3.80;1.40;;;12.90;99.90;;;;;;2115425;28;20015;-73
2022/02/17 01:58:51;;;;;;;5.40;2.00;;;12.90;99.90;;;;;;2106751;28;20032;-74
2022/02/17 01:59:51;;;;;;;3.78;1.70;;;12.90;99.90;;;;;;2106322;28;20035;-73
2022/02/17 02:00:52;;;;;;;8.27;2.85;;;12.90;99.90;;;;;;2106438;28;20020;-73
2022/02/17 02:01:52;;;;;;;5.95;2.20;;;12.90;99.90;;;;;;2104818;28;20495;-73
2022/02/17 02:02:53;;;;;;;6.00;2.08;;;12.90;99.90;;;;;;2104016;28;20036;-73
2022/02/17 02:03:53;;;;;;;6.80;2.10;;;12.90;99.90;;;;;;2103188;28;20033;-73
2022/02/17 02:04:54;;;;;;;8.18;2.58;;;12.90;99.90;;;;;;2106300;28;20107;-73
2022/02/17 02:05:54;;;;;;;11.07;2.65;;;12.90;99.90;;;;;;2107388;28;20033;-73
2022/02/17 02:06:57;;;;;;;8.93;2.38;;;12.90;99.90;;;;;;2108337;28;20059;-73
2022/02/17 02:07:57;;;;;;;8.02;3.03;;;12.90;99.90;;;;;;2102919;28;20028;-73
2022/02/17 02:08:58;;;;;;;13.00;3.63;;;12.80;99.90;;;;;;2104924;28;20033;-73
2022/02/17 02:09:59;;;;;;;9.60;2.50;;;12.90;99.90;;;;;;2104364;28;20058;-73
2022/02/17 02:11:00;;;;;;;8.40;2.22;;;12.90;99.90;;;;;;2107416;28;20024;-73
2022/02/17 02:12:00;;;;;;;8.88;2.55;;;12.90;99.90;;;;;;2103322;28;20035;-73
2022/02/17 02:13:01;;;;;;;9.40;2.75;;;12.80;99.90;;;;;;2107096;28;20349;-73
2022/02/17 02:14:02;;;;;;;10.90;2.85;;;12.90;99.90;;;;;;2109959;28;20035;-73
2022/02/17 02:15:02;;;;;;;8.45;3.30;;;12.90;99.90;;;;;;2109562;28;20105;-73
2022/02/17 02:16:04;;;;;;;8.32;2.70;;;12.80;99.90;;;;;;2108631;28;20073;-73
2022/02/17 02:17:05;;;;;;;9.57;2.78;;;12.90;99.90;;;;;;2102673;28;20019;-73
2022/02/17 02:18:06;;;;;;;10.57;2.60;;;12.90;99.90;;;;;;2102682;28;20020;-73
2022/02/17 02:19:09;;;;;;;7.82;2.75;;;12.90;99.90;;;;;;2105973;28;20479;-72
2022/02/17 02:20:16;;;;;;;9.38;2.50;;;12.90;99.90;;;;;;2105698;28;20028;-73
2022/02/17 02:21:21;;;;;;;10.70;2.67;;;12.90;99.90;;;;;;2105862;28;20085;-73
2022/02/17 02:22:21;;;;;;;6.57;2.47;;;12.80;99.90;;;;;;2107721;28;20032;-73
2022/02/17 02:23:22;;;;;;;10.18;2.90;;;12.80;99.90;;;;;;2106454;28;20380;-73
2022/02/17 02:24:22;;;;;;;12.68;2.75;;;12.80;99.90;;;;;;2108419;28;20108;-72
2022/02/17 02:25:24;;;;;;;7.80;2.50;;;12.80;99.90;;;;;;2101373;28;20396;-73
2022/02/17 02:26:27;;;;;;;7.95;2.53;;;12.80;99.90;;;;;;2103267;28;20031;-73
2022/02/17 02:27:29;;;;;;;10.30;2.60;;;12.80;99.90;;;;;;2105311;28;20024;-72
2022/02/17 02:28:33;;;;;;;11.77;3.55;;;12.80;99.90;;;;;;2108194;28;20098;-73
2022/02/17 02:29:34;;;;;;;10.68;2.65;;;12.80;99.90;;;;;;2106669;28;20042;-73
2022/02/17 02:30:34;;;;;;;8.25;2.63;;;12.80;99.90;;;;;;2106190;28;20036;-73
2022/02/17 02:31:36;;;;;;;12.18;2.35;;;12.80;99.90;;;;;;2108849;28;20020;-73
2022/02/17 02:32:37;;;;;;;9.18;2.60;;;12.80;99.90;;;;;;2108186;28;20102;-73
2022/02/17 02:33:37;;;;;;;9.27;3.03;;;12.80;99.90;;;;;;2104302;28;20024;-73
2022/02/17 02:34:38;;;;;;;8.68;2.70;;;12.80;99.90;;;;;;2103502;28;20108;-72
2022/02/17 02:35:39;;;;;;;9.32;2.80;;;12.80;99.90;;;;;;2102788;28;20035;-73
2022/02/17 02:36:39;;;;;;;10.50;3.25;;;12.80;99.90;;;;;;2109659;28;20110;-73
2022/02/17 02:37:40;;;;;;;12.25;3.03;;;12.80;99.90;;;;;;2106186;28;20035;-73
2022/02/17 02:38:41;;;;;;;13.95;3.35;;;12.90;99.90;;;;;;2107004;28;20540;-73
2022/02/17 02:39:41;;;;;;;11.55;3.13;;;12.80;99.90;;;;;;2106382;28;20710;-74
2022/02/17 02:40:42;;;;;;;9.98;3.20;;;12.80;99.90;;;;;;2107106;28;20016;-73
2022/02/17 02:41:43;;;;;;;10.20;2.75;;;12.80;99.90;;;;;;2104445;28;20028;-73
2022/02/17 02:42:45;;;;;;;13.52;3.80;;;12.80;99.90;;;;;;2103633;28;20028;-73
2022/02/17 02:43:45;;;;;;;13.65;3.60;;;12.80;99.90;;;;;;2104617;28;20055;-73
2022/02/17 02:44:46;;;;;;;11.82;3.47;;;12.80;99.90;;;;;;2109975;28;20020;-73
2022/02/17 02:45:46;;;;;;;9.05;3.13;;;12.80;99.90;;;;;;2108615;28;20035;-73
2022/02/17 02:46:47;;;;;;;11.32;2.88;;;12.80;99.90;;;;;;2098936;28;20649;-73
2022/02/17 02:47:47;;;;;;;10.93;3.20;;;12.80;99.90;;;;;;2107584;28;20028;-73
2022/02/17 02:48:48;;;;;;;13.48;3.28;;;12.80;99.90;;;;;;2101619;28;20028;-73
2022/02/17 02:49:48;;;;;;;12.80;3.95;;;12.80;99.90;;;;;;2106310;28;20372;-73
2022/02/17 02:50:49;;;;;;;11.75;3.85;;;12.80;99.90;;;;;;2105499;28;20177;-73
2022/02/17 02:51:50;;;;;;;13.45;3.50;;;12.80;99.90;;;;;;2102218;28;20025;-73
2022/02/17 02:52:52;;;;;;;8.85;3.10;;;12.80;99.90;;;;;;2104506;28;20112;-73
2022/02/17 02:53:53;;;;;;;11.48;3.10;;;12.80;99.90;;;;;;2105919;28;20495;-73
2022/02/17 02:54:53;;;;;;;12.68;3.15;;;12.80;99.90;;;;;;2108622;28;20375;-73
2022/02/17 02:55:54;;;;;;;17.27;3.25;;;12.80;99.90;;;;;;2107566;28;20474;-73
2022/02/17 02:56:54;;;;;;;15.65;3.38;;;12.80;99.90;;;;;;2106133;28;20348;-73
2022/02/17 02:57:55;;;;;;;13.10;3.38;;;12.80;99.90;;;;;;2106760;28;20039;-73
2022/02/17 02:58:56;;;;;;;13.85;3.65;;;12.70;99.90;;;;;;2102970;28;20103;-73
2022/02/17 02:59:56;;;;;;;10.95;3.40;;;12.80;99.90;;;;;;2106108;28;20028;-73
2022/02/17 03:00:57;;;;;;;12.32;3.38;;;12.70;99.90;;;;;;2109036;28;20445;-73
2022/02/17 03:01:57;;;;;;;12.73;3.95;;;12.70;99.90;;;;;;2109156;28;20404;-73
2022/02/17 03:02:58;;;;;;;11.70;3.15;;;12.70;99.90;;;;;;2108553;28;20421;-72
2022/02/17 03:03:59;;;;;;;13.07;3.88;;;12.80;99.90;;;;;;2105800;28;20439;-73
2022/02/17 03:05:00;;;;;;;13.35;3.90;;;12.70;99.90;;;;;;2107575;28;20110;-73
2022/02/17 03:06:00;;;;;;;9.27;3.47;;;12.70;99.90;;;;;;2104811;28;20040;-72
2022/02/17 03:07:01;;;;;;;8.93;3.05;;;12.70;99.90;;;;;;2102622;28;20028;-73
2022/02/17 03:08:02;;;;;;;14.70;2.88;;;12.70;99.90;;;;;;2106444;28;20065;-72
2022/02/17 03:09:03;;;;;;;13.00;3.00;;;12.70;99.90;;;;;;2108150;28;20085;-73
2022/02/17 03:10:05;;;;;;;10.80;3.55;;;12.70;99.90;;;;;;2105957;28;20133;-72
2022/02/17 03:11:05;;;;;;;12.68;3.50;;;12.70;99.90;;;;;;2106999;28;20024;-73
2022/02/17 03:12:06;;;;;;;11.02;3.70;;;12.70;99.90;;;;;;2099251;28;20028;-73
2022/02/17 03:13:07;;;;;;;16.40;3.75;;;12.70;99.90;;;;;;2105923;28;20058;-73
2022/02/17 03:14:09;;;;;;;15.07;3.47;;;12.70;99.90;;;;;;2102901;28;20452;-72
2022/02/17 03:15:10;;;;;;;14.73;4.07;;;12.70;99.90;;;;;;2101861;28;20032;-72
2022/02/17 03:16:11;;;;;;;14.00;3.85;;;12.70;99.90;;;;;;2107282;28;20073;-73
2022/02/17 03:17:11;;;;;;;17.50;3.88;;;12.70;99.90;;;;;;2107779;28;20086;-73
2022/02/17 03:18:12;;;;;;;15.05;4.60;;;12.70;99.90;;;;;;2107180;28;20465;-73
2022/02/17 03:19:13;;;;;;;14.07;4.22;;;12.60;99.90;;;;;;2105660;28;20024;-72
2022/02/17 03:20:14;;;;;;;12.55;3.60;;;12.60;99.90;;;;;;2103628;28;20103;-72
2022/02/17 03:21:14;;;;;;;9.68;3.22;;;12.60;99.90;;;;;;2105528;28;20050;-72
2022/02/17 03:22:15;;;;;;;20.25;4.40;;;12.60;99.90;;;;;;2106672;28;20020;-73
2022/02/17 03:23:15;;;;;;;14.60;4.07;;;12.60;99.90;;;;;;2102180;28;20082;-72
2022/02/17 03:24:16;;;;;;;12.63;4.03;;;12.60;99.90;;;;;;2108953;28;20050;-72
2022/02/17 03:25:16;;;;;;;19.73;4.20;;;12.60;99.90;;;;;;2108145;28;20468;-72
2022/02/17 03:26:17;;;;;;;15.45;3.22;;;12.60;99.90;;;;;;2104401;28;20034;-72
2022/02/17 03:27:18;;;;;;;17.30;4.45;;;12.60;99.90;;;;;;2104855;28;20098;-72
2022/02/17 03:28:18;;;;;;;15.00;3.80;;;12.60;99.90;;;;;;2104237;28;20020;-73
2022/02/17 03:29:19;;;;;;;15.48;4.07;;;12.50;99.90;;;;;;2105418;28;20020;-72
2022/02/17 03:30:19;;;;;;;15.00;4.22;;;12.50;99.90;;;;;;2104895;28;20024;-73
2022/02/17 03:31:20;;;;;;;17.85;3.75;;;12.50;99.90;;;;;;2105674;28;20024;-72
2022/02/17 03:32:21;;;;;;;16.48;4.10;;;12.50;99.90;;;;;;2109676;28;20053;-72
2022/02/17 03:33:21;;;;;;;17.98;4.45;;;12.50;99.90;;;;;;2107704;28;20020;-72
2022/02/17 03:34:24;;;;;;;16.45;3.90;;;12.50;99.90;;;;;;2106576;28;20095;-72
2022/02/17 03:35:24;;;;;;;14.85;4.60;;;12.50;99.90;;;;;;2106127;28;20012;-72
2022/02/17 03:36:25;;;;;;;17.48;4.30;;;12.50;99.90;;;;;;2105612;28;20068;-72
2022/02/17 03:37:26;;;;;;;16.05;4.40;;;12.50;99.90;;;;;;2105994;28;20028;-72
2022/02/17 03:38:26;;;;;;;16.33;4.05;;;12.50;99.90;;;;;;2102792;28;20016;-72
2022/02/17 03:39:27;;;;;;;13.95;3.95;;;12.40;99.90;;;;;;2109106;28;20049;-72
2022/02/17 03:40:27;;;;;;;20.67;5.90;;;12.50;99.90;;;;;;2108506;28;20016;-72
2022/02/17 03:41:28;;;;;;;18.80;4.57;;;12.50;99.90;;;;;;2107742;28;20103;-72
2022/02/17 03:42:29;;;;;;;18.05;4.68;;;12.50;99.90;;;;;;2108218;28;20080;-72
2022/02/17 03:43:29;;;;;;;22.15;4.68;;;12.50;99.90;;;;;;2104511;28;20035;-72
2022/02/17 03:44:30;;;;;;;18.10;4.60;;;12.40;99.90;;;;;;2106953;28;20024;-72
2022/02/17 03:45:31;;;;;;;13.48;4.40;;;12.40;99.90;;;;;;2105825;28;20012;-72
2022/02/17 03:46:32;;;;;;;15.85;4.40;;;12.40;99.90;;;;;;2105813;28;20031;-72
2022/02/17 03:47:32;;;;;;;17.27;3.95;;;12.40;99.90;;;;;;2109683;28;20379;-72
2022/02/17 03:48:33;;;;;;;18.13;4.93;;;12.30;99.90;;;;;;2103019;28;20043;-72
2022/02/17 03:49:34;;;;;;;15.15;3.95;;;12.40;99.90;;;;;;2103348;28;20020;-72
2022/02/17 03:50:34;;;;;;;16.55;4.35;;;12.30;99.90;;;;;;2102350;28;20449;-72
2022/02/17 03:51:35;;;;;;;19.17;4.30;;;12.30;99.90;;;;;;2100163;28;20038;-71
2022/02/17 03:52:37;;;;;;;15.52;4.47;;;12.30;99.90;;;;;;2103872;28;20461;-72
2022/02/17 03:53:37;;;;;;;16.17;4.40;;;12.30;99.90;;;;;;2104326;28;20427;-72
2022/02/17 03:54:38;;;;;;;16.33;4.55;;;12.30;99.90;;;;;;2103364;28;20031;-71
2022/02/17 03:55:39;;;;;;;22.50;4.70;;;12.30;99.90;;;;;;2108337;28;20016;-72
2022/02/17 03:56:39;;;;;;;14.52;4.45;;;12.30;99.90;;;;;;2104774;28;20020;-71
2022/02/17 03:57:40;;;;;;;15.40;4.47;;;12.30;99.90;;;;;;2107232;28;20019;-72
2022/02/17 04:00:00;;;;;;;15.90;3.97;;;12.30;99.90;;;;;;2102170;28;20016;-72
2022/02/17 04:01:01;;;;;;;16.45;4.18;;;12.20;99.90;;;;;;2104886;28;20048;-72
2022/02/17 04:02:02;;;;;;;22.05;4.70;;;12.20;99.90;;;;;;2105387;28;20024;-72
2022/02/17 04:03:03;;;;;;;15.68;4.13;;;12.20;99.90;;;;;;2101964;28;20032;-72
2022/02/17 04:04:07;;;;;;;19.42;4.25;;;12.20;99.90;;;;;;2108435;28;20109;-72
2022/02/17 04:05:08;;;;;;;15.70;5.07;;;12.20;99.90;;;;;;2106118;28;20063;-72
2022/02/17 04:06:08;;;;;;;19.58;4.28;;;12.20;99.90;;;;;;2108186;28;20024;-72
2022/02/17 04:07:09;;;;;;;14.73;4.18;;;12.20;99.90;;;;;;2104670;28;20035;-72
2022/02/17 04:08:10;;;;;;;14.85;3.28;;;12.20;99.90;;;;;;2103482;28;20048;-72
2022/02/17 04:09:10;;;;;;;13.57;3.30;;;12.20;99.90;;;;;;2103143;28;20051;-72
2022/02/17 04:10:11;;;;;;;16.13;3.83;;;12.20;99.90;;;;;;2105305;28;20071;-72
2022/02/17 04:11:11;;;;;;;14.40;4.18;;;12.20;99.90;;;;;;2107252;28;20449;-72
2022/02/17 04:12:13;;;;;;;13.43;3.70;;;12.20;99.90;;;;;;2108876;28;20063;-72
2022/02/17 04:13:14;;;;;;;15.98;4.00;;;12.20;99.90;;;;;;2107129;28;20024;-72
2022/02/17 04:14:15;;;;;;;17.85;4.90;;;12.20;99.90;;;;;;2107746;28;20047;-72
2022/02/17 04:15:15;;;;;;;17.80;4.50;;;12.20;99.90;;;;;;2104887;28;20023;-72
2022/02/17 04:16:17;;;;;;;16.50;3.83;;;12.20;99.90;;;;;;2106972;28;20051;-72
2022/02/17 04:17:18;;;;;;;21.13;4.32;;;12.20;99.90;;;;;;2104373;28;20400;-72
2022/02/17 04:18:19;;;;;;;17.67;3.97;;;12.10;99.90;;;;;;2105271;28;20436;-72
2022/02/17 04:19:19;;;;;;;13.05;3.92;;;12.10;99.90;;;;;;2103816;28;20020;-72
2022/02/17 04:20:20;;;;;;;14.18;3.58;;;12.10;99.90;;;;;;2104688;28;20050;-72
2022/02/17 04:21:22;;;;;;;14.55;3.60;;;12.10;99.90;;;;;;2104168;28;20020;-71
2022/02/17 04:22:23;;;;;;;18.08;4.45;;;12.10;99.90;;;;;;2104771;28;20019;-72
2022/02/17 04:23:23;;;;;;;13.77;4.20;;;12.10;99.90;;;;;;2105690;28;20020;-71
2022/02/17 04:24:24;;;;;;;10.40;3.25;;;12.00;99.90;;;;;;2105825;28;20061;-72
2022/02/17 04:25:24;;;;;;;17.88;3.97;;;12.00;99.90;;;;;;2104864;28;20024;-72
2022/02/17 04:26:25;;;;;;;18.70;4.40;;;12.00;99.90;;;;;;2105264;28;20380;-73
2022/02/17 04:27:25;;;;;;;15.20;3.90;;;12.00;99.90;;;;;;2102654;28;20027;-72
2022/02/17 04:28:26;;;;;;;17.13;3.90;;;12.00;99.90;;;;;;2104648;28;20022;-72
2022/02/17 04:29:27;;;;;;;12.13;4.13;;;12.00;99.90;;;;;;2108105;28;20464;-72
2022/02/17 04:30:27;;;;;;;14.70;4.32;;;12.00;99.90;;;;;;2101443;28;20074;-72
2022/02/17 04:31:28;;;;;;;14.88;4.40;;;11.90;99.90;;;;;;2103283;28;20020;-72
2022/02/17 04:32:28;;;;;;;16.35;3.50;;;11.90;99.90;;;;;;2106126;28;20425;-72
2022/02/17 04:33:29;;;;;;;16.15;4.10;;;11.90;99.90;;;;;;2104789;28;20037;-72
2022/02/17 04:34:29;;;;;;;18.33;4.05;;;12.00;99.90;;;;;;2101237;28;20474;-72
2022/02/17 04:35:30;;;;;;;12.30;3.88;;;12.00;99.90;;;;;;2105530;28;20399;-72
2022/02/17 04:36:30;;;;;;;14.50;4.93;;;12.00;99.90;;;;;;2108403;28;20015;-72
2022/02/17 04:37:31;;;;;;;13.57;3.67;;;11.90;99.90;;;;;;2103858;28;20103;-72
2022/02/17 04:38:32;;;;;;;12.38;3.80;;;11.90;99.90;;;;;;2105435;28;20020;-72
2022/02/17 04:39:32;;;;;;;14.32;3.83;;;11.90;99.90;;;;;;2104658;28;20099;-72
2022/02/17 04:43:11;;;;;;;16.75;4.78;;;11.90;99.90;;;;;;2103617;28;20460;-72
2022/02/17 04:44:11;;;;;;;20.95;4.55;;;11.90;99.90;;;;;;2106773;28;20563;-72
2022/02/17 04:45:12;;;;;;;18.85;4.63;;;11.90;99.90;;;;;;2108228;28;20020;-72
2022/02/17 04:46:13;;;;;;;14.60;4.10;;;11.90;99.90;;;;;;2104125;28;20028;-72
2022/02/17 04:47:15;;;;;;;16.33;5.03;;;11.90;99.90;;;;;;2106956;28;20024;-71
2022/02/17 04:48:15;;;;;;;20.08;4.57;;;11.90;99.90;;;;;;2105604;28;20676;-72
2022/02/17 04:49:16;;;;;;;15.48;4.03;;;11.90;99.90;;;;;;2104038;28;20744;-72
2022/02/17 04:50:16;;;;;;;16.15;4.68;;;11.80;99.90;;;;;;2105304;28;20024;-72
2022/02/17 04:51:17;;;;;;;17.23;4.95;;;11.80;99.90;;;;;;2104331;28;20020;-72
2022/02/17 04:52:18;;;;;;;14.82;4.38;;;11.90;99.90;;;;;;2106249;28;20026;-72
2022/02/17 04:53:18;;;;;;;18.23;4.72;;;11.90;99.90;;;;;;2103728;28;20019;-72
2022/02/17 04:54:19;;;;;;;20.10;4.72;;;11.80;99.90;;;;;;2097924;28;20060;-72
2022/02/17 04:55:20;;;;;;;20.88;4.97;;;11.90;99.90;;;;;;2103501;28;20456;-72
2022/02/17 04:56:20;;;;;;;15.88;4.32;;;11.80;99.90;;;;;;2102981;28;20024;-72
2022/02/17 04:57:21;;;;;;;13.10;3.92;;;11.80;99.90;;;;;;2102273;28;20757;-72
2022/02/17 04:58:24;;;;;;;21.85;5.43;;;11.80;99.90;;;;;;2107954;28;20047;-72
2022/02/17 04:59:25;;;;;;;18.98;5.10;;;11.80;99.90;;;;;;2104000;28;20061;-72
2022/02/17 05:00:26;;;;;;;13.85;4.13;;;11.80;99.90;;;;;;2107293;28;20027;-72
2022/02/17 05:01:26;;;;;;;17.25;4.18;;;11.80;99.90;;;;;;2106920;28;20115;-72
2022/02/17 05:02:27;;;;;;;16.38;4.25;;;11.80;99.90;;;;;;2105036;28;20051;-71
2022/02/17 05:03:27;;;;;;;19.92;4.70;;;11.80;99.90;;;;;;2105134;28;20016;-72
2022/02/17 05:04:28;;;;;;;19.10;4.30;;;11.80;99.90;;;;;;2103178;28;20020;-72
2022/02/17 05:05:28;;;;;;;19.83;4.38;;;11.80;99.90;;;;;;2104935;28;20081;-71
2022/02/17 05:06:29;;;;;;;20.10;4.25;;;11.80;99.90;;;;;;2103172;28;20008;-72
2022/02/17 05:07:30;;;;;;;16.63;4.20;;;11.80;99.90;;;;;;2103901;28;20483;-72
2022/02/17 05:08:30;;;;;;;21.23;4.90;;;11.80;99.90;;;;;;2102421;28;20430;-71
2022/02/17 05:09:31;;;;;;;16.60;4.22;;;11.80;99.90;;;;;;2103408;28;20016;-71
2022/02/17 05:10:31;;;;;;;18.30;4.18;;;11.80;99.90;;;;;;2105036;28;20734;-71
2022/02/17 05:11:32;;;;;;;14.32;4.20;;;11.80;99.90;;;;;;2106352;28;20047;-71
2022/02/17 05:12:32;;;;;;;19.50;4.30;;;11.70;99.90;;;;;;2102849;28;20012;-71
2022/02/17 05:13:33;;;;;;;16.10;4.10;;;11.70;99.90;;;;;;2104955;28;20020;-71
2022/02/17 05:14:34;;;;;;;17.08;4.53;;;11.80;99.90;;;;;;2107176;28;20378;-72
2022/02/17 05:15:38;;;;;;;15.15;4.15;;;11.80;99.90;;;;;;2100808;28;20020;-71
2022/02/17 05:16:39;;;;;;;23.17;4.80;;;11.80;99.90;;;;;;2098928;28;20021;-72
2022/02/17 05:17:39;;;;;;;13.25;4.65;;;11.80;99.90;;;;;;2101690;28;20044;-71
2022/02/17 05:18:40;;;;;;;19.13;4.60;;;11.80;99.90;;;;;;2101530;28;20031;-72